KGDV/GDV METAR and TAF weather

Enter ICAO airport designator
Station Type Date Time Source
KGDV METAR 2020/06/01 15:56 UTC NOAA

KGDV 011556Z AUTO 32007KT 10SM CLR 19/08 A2996 RMK AO2 SLP130 T01940078


Station Type Date Time Source
KGDV Decoded METAR 2020/06/01 15:56 UTC NOAA

Glendive, Dawson Community Airport, MT, United States (KGDV) 47-08N 104-48W
Jun 01, 2020 - 11:56 AM EDT / 2020.06.01 1556 UTC
Wind: from the NW (320 degrees) at 8 MPH (7 KT):0
Visibility: 10 mile(s):0
Sky conditions: clear
Temperature: 66.9 F (19.4 C)
Dew Point: 46.0 F (7.8 C)
Relative Humidity: 46%
Pressure (altimeter): 29.96 in. Hg (1014 hPa)
ob: KGDV 011556Z AUTO 32007KT 10SM CLR 19/08 A2996 RMK AO2 SLP130 T01940078
cycle: 16

Station Type Date Time Source
KGDV TAF 2020/06/01 12:36 UTC NOAA

TAF KGDV 011133Z 0112/0212 29007KT P6SM SKC WS020/33040KT
FM011300 31007KT P6SM FEW250
FM021100 34008KT P6SM BKN070

Example: see airport list